Saint Bonnet de Bellac- Haute Vienne - France
Donnes mto: jeudi, 04/10/2012
Date Horaire Temp. E. Hum. E. P.atmo. Pluie Vent Direction Direction Ensoleilleme Solaire P. de rose Temp au vent Rafales
04/10/2012 00:00 14,8 C 85 % 1015,3 hPa 0,0 mm 6,1 km/h (2 Bft) SO 225 0 min 0 W/m 12,3 C 14,8 C 6,1 km/h (2 Bft)
04/10/2012 00:10 14,6 C 86 % 1015,3 hPa 0,0 mm 9,4 km/h (2 Bft) S-SO 202 0 min 0 W/m 12,3 C 14,6 C 9,4 km/h (2 Bft)
04/10/2012 00:20 14,5 C 86 % 1015,3 hPa 0,0 mm 9,4 km/h (2 Bft) S-SO 202 0 min 0 W/m 12,2 C 14,5 C 14,4 km/h (3 Bft)
04/10/2012 00:30 14,4 C 86 % 1015,3 hPa 0,0 mm 6,5 km/h (2 Bft) SO 225 0 min 0 W/m 12,1 C 14,4 C 11,5 km/h (2 Bft)
04/10/2012 00:40 14,3 C 86 % 1015,2 hPa 0,0 mm 5,8 km/h (2 Bft) S-SO 202 0 min 0 W/m 12,0 C 14,3 C 7,6 km/h (2 Bft)
04/10/2012 00:50 14,2 C 87 % 1015,2 hPa 0,0 mm 5,4 km/h (2 Bft) S 180 0 min 0 W/m 12,1 C 14,2 C 8,3 km/h (2 Bft)
04/10/2012 01:00 14,1 C 87 % 1015,0 hPa 0,0 mm 6,8 km/h (2 Bft) SO 225 0 min 0 W/m 12,0 C 14,1 C 14,0 km/h (3 Bft)
04/10/2012 01:10 13,9 C 88 % 1014,9 hPa 0,0 mm 3,6 km/h (1 Bft) SO 225 0 min 0 W/m 11,9 C 13,9 C 9,0 km/h (2 Bft)
04/10/2012 01:20 13,8 C 88 % 1014,8 hPa 0,0 mm 8,3 km/h (2 Bft) SO 225 0 min 0 W/m 11,8 C 13,8 C 13,0 km/h (3 Bft)
04/10/2012 01:30 13,8 C 88 % 1014,8 hPa 0,0 mm 4,7 km/h (1 Bft) S-SO 202 0 min 0 W/m 11,8 C 13,8 C 7,9 km/h (2 Bft)
04/10/2012 01:40 13,8 C 88 % 1014,9 hPa 0,0 mm 8,3 km/h (2 Bft) S-SO 202 0 min 0 W/m 11,8 C 13,8 C 8,3 km/h (2 Bft)
04/10/2012 01:50 13,7 C 89 % 1015,0 hPa 0,0 mm 4,7 km/h (1 Bft) S-SO 202 0 min 0 W/m 11,9 C 13,7 C 9,0 km/h (2 Bft)
04/10/2012 02:00 13,6 C 89 % 1015,0 hPa 0,0 mm 5,0 km/h (1 Bft) SO 225 0 min 0 W/m 11,8 C 13,6 C 5,0 km/h (1 Bft)
04/10/2012 02:10 13,6 C 89 % 1014,9 hPa 0,0 mm 5,8 km/h (2 Bft) O-SO 247 0 min 0 W/m 11,8 C 13,6 C 7,2 km/h (2 Bft)
04/10/2012 02:20 13,6 C 89 % 1014,9 hPa 0,0 mm 5,0 km/h (1 Bft) S-SO 202 0 min 0 W/m 11,8 C 13,6 C 8,6 km/h (2 Bft)
04/10/2012 02:30 13,4 C 89 % 1014,7 hPa 0,0 mm 4,7 km/h (1 Bft) O-SO 247 0 min 0 W/m 11,6 C 13,4 C 7,9 km/h (2 Bft)
04/10/2012 02:40 13,3 C 89 % 1014,7 hPa 0,0 mm 4,3 km/h (1 Bft) SO 225 0 min 0 W/m 11,5 C 13,3 C 7,9 km/h (2 Bft)
04/10/2012 02:50 13,2 C 90 % 1014,6 hPa 0,0 mm 6,8 km/h (2 Bft) S-SO 202 0 min 0 W/m 11,6 C 13,2 C 10,4 km/h (2 Bft)
04/10/2012 03:02 13,1 C 90 % 1014,5 hPa 0,0 mm 3,6 km/h (1 Bft) SO 225 0 min 0 W/m 11,5 C 13,1 C 3,6 km/h (1 Bft)
04/10/2012 03:10 12,9 C 90 % 1014,4 hPa 0,0 mm 4,3 km/h (1 Bft) SO 225 0 min 0 W/m 11,3 C 12,9 C 6,5 km/h (2 Bft)
04/10/2012 03:20 13,0 C 90 % 1014,4 hPa 0,0 mm 3,2 km/h (1 Bft) SO 225 0 min 0 W/m 11,4 C 13,0 C 6,5 km/h (2 Bft)
04/10/2012 03:30 13,0 C 90 % 1014,3 hPa 0,0 mm 4,0 km/h (1 Bft) S-SO 202 0 min 0 W/m 11,4 C 13,0 C 6,1 km/h (2 Bft)
04/10/2012 03:40 13,0 C 90 % 1014,0 hPa 0,0 mm 3,6 km/h (1 Bft) SO 225 0 min 0 W/m 11,4 C 13,0 C 6,1 km/h (2 Bft)
04/10/2012 03:50 13,1 C 90 % 1014,0 hPa 0,0 mm 6,8 km/h (2 Bft) SO 225 0 min 0 W/m 11,5 C 13,1 C 6,8 km/h (2 Bft)
04/10/2012 04:00 13,1 C 90 % 1013,8 hPa 0,0 mm 8,6 km/h (2 Bft) SO 225 0 min 0 W/m 11,5 C 13,1 C 10,4 km/h (2 Bft)
04/10/2012 04:10 13,3 C 90 % 1013,7 hPa 0,0 mm 4,0 km/h (1 Bft) O 270 0 min 0 W/m 11,7 C 13,3 C 7,6 km/h (2 Bft)
04/10/2012 04:20 13,3 C 89 % 1013,8 hPa 0,0 mm 5,8 km/h (2 Bft) S-SO 202 0 min 0 W/m 11,5 C 13,3 C 6,5 km/h (2 Bft)
04/10/2012 04:30 13,4 C 89 % 1013,7 hPa 0,0 mm 4,3 km/h (1 Bft) S-SE 157 0 min 0 W/m 11,6 C 13,4 C 7,2 km/h (2 Bft)
04/10/2012 04:40 13,5 C 89 % 1013,6 hPa 0,0 mm 8,3 km/h (2 Bft) S-SO 202 0 min 0 W/m 11,7 C 13,5 C 12,6 km/h (3 Bft)
04/10/2012 04:50 13,6 C 88 % 1013,6 hPa 0,0 mm 6,8 km/h (2 Bft) S-SO 202 0 min 0 W/m 11,6 C 13,6 C 10,1 km/h (2 Bft)
04/10/2012 05:00 13,7 C 88 % 1013,5 hPa 0,0 mm 6,1 km/h (2 Bft) S-SO 202 0 min 0 W/m 11,7 C 13,7 C 9,0 km/h (2 Bft)
04/10/2012 05:10 13,8 C 88 % 1013,5 hPa 0,0 mm 3,2 km/h (1 Bft) SO 225 0 min 0 W/m 11,8 C 13,8 C 6,1 km/h (2 Bft)
04/10/2012 05:20 13,8 C 88 % 1013,6 hPa 0,0 mm 7,9 km/h (2 Bft) SO 225 0 min 0 W/m 11,8 C 13,8 C 11,2 km/h (2 Bft)
04/10/2012 05:30 13,9 C 88 % 1013,5 hPa 0,0 mm 8,6 km/h (2 Bft) SO 225 0 min 0 W/m 11,9 C 13,9 C 11,9 km/h (2 Bft)
04/10/2012 05:40 14,0 C 88 % 1013,5 hPa 0,0 mm 7,6 km/h (2 Bft) SO 225 0 min 0 W/m 12,0 C 14,0 C 8,6 km/h (2 Bft)
04/10/2012 05:50 14,1 C 88 % 1013,5 hPa 0,0 mm 10,8 km/h (2 Bft) O-SO 247 0 min 0 W/m 12,1 C 14,1 C 19,8 km/h (3 Bft)
04/10/2012 06:00 14,3 C 88 % 1013,3 hPa 0,0 mm 8,3 km/h (2 Bft) S-SO 202 0 min 0 W/m 12,3 C 14,3 C 13,7 km/h (3 Bft)
04/10/2012 06:10 14,3 C 88 % 1013,3 hPa 0,0 mm 8,6 km/h (2 Bft) SO 225 0 min 0 W/m 12,3 C 14,3 C 9,0 km/h (2 Bft)
04/10/2012 06:20 14,4 C 88 % 1013,2 hPa 0,0 mm 5,4 km/h (2 Bft) SO 225 0 min 0 W/m 12,4 C 14,4 C 10,1 km/h (2 Bft)
04/10/2012 06:30 14,6 C 88 % 1013,2 hPa 0,0 mm 8,3 km/h (2 Bft) SO 225 0 min 0 W/m 12,6 C 14,6 C 15,1 km/h (3 Bft)
04/10/2012 06:40 14,6 C 88 % 1013,2 hPa 0,0 mm 11,5 km/h (2 Bft) SO 225 0 min 0 W/m 12,6 C 14,6 C 16,9 km/h (3 Bft)
04/10/2012 06:50 14,6 C 88 % 1013,1 hPa 0,0 mm 8,3 km/h (2 Bft) S-SO 202 0 min 0 W/m 12,6 C 14,6 C 17,3 km/h (3 Bft)
04/10/2012 07:00 14,6 C 88 % 1013,1 hPa 0,0 mm 11,2 km/h (2 Bft) S-SE 157 0 min 0 W/m 12,6 C 14,6 C 20,2 km/h (4 Bft)
04/10/2012 07:10 14,8 C 88 % 1013,1 hPa 0,0 mm 11,2 km/h (2 Bft) SO 225 0 min 0 W/m 12,8 C 14,8 C 11,2 km/h (2 Bft)
04/10/2012 07:20 14,8 C 88 % 1013,3 hPa 0,0 mm 10,8 km/h (2 Bft) SO 225 0 min 0 W/m 12,8 C 14,8 C 18,4 km/h (3 Bft)
04/10/2012 07:30 14,8 C 88 % 1013,3 hPa 0,0 mm 8,3 km/h (2 Bft) S 180 0 min 0 W/m 12,8 C 14,8 C 13,0 km/h (3 Bft)
04/10/2012 07:40 14,8 C 88 % 1013,4 hPa 0,0 mm 5,8 km/h (2 Bft) S-SO 202 0 min 0 W/m 12,8 C 14,8 C 9,7 km/h (2 Bft)
04/10/2012 07:50 14,9 C 88 % 1013,5 hPa 0,0 mm 6,8 km/h (2 Bft) SO 225 0 min 0 W/m 12,9 C 14,9 C 14,0 km/h (3 Bft)
04/10/2012 08:00 14,9 C 88 % 1013,5 hPa 0,0 mm 11,5 km/h (2 Bft) S-SO 202 0 min 0 W/m 12,9 C 14,9 C 12,2 km/h (2 Bft)
04/10/2012 08:10 15,0 C 88 % 1013,4 hPa 0,0 mm 5,8 km/h (2 Bft) SO 225 0 min 0 W/m 13,0 C 15,0 C 9,4 km/h (2 Bft)
04/10/2012 08:20 15,1 C 88 % 1013,5 hPa 0,0 mm 10,4 km/h (2 Bft) SO 225 0 min 0 W/m 13,1 C 15,1 C 11,5 km/h (2 Bft)
04/10/2012 08:30 15,1 C 87 % 1013,5 hPa 0,0 mm 7,6 km/h (2 Bft) O-SO 247 0 min 0 W/m 13,0 C 15,1 C 10,8 km/h (2 Bft)
04/10/2012 08:40 15,2 C 87 % 1013,5 hPa 0,0 mm 9,7 km/h (2 Bft) SO 225 0 min 0 W/m 13,0 C 15,2 C 16,9 km/h (3 Bft)
04/10/2012 08:50 15,2 C 87 % 1013,8 hPa 0,0 mm 9,0 km/h (2 Bft) SO 225 0 min 0 W/m 13,0 C 15,2 C 12,6 km/h (3 Bft)
04/10/2012 09:00 15,3 C 87 % 1014,0 hPa 0,0 mm 10,1 km/h (2 Bft) O-SO 247 0 min 0 W/m 13,1 C 15,3 C 10,4 km/h (2 Bft)
04/10/2012 09:10 15,3 C 87 % 1014,1 hPa 0,0 mm 7,2 km/h (2 Bft) S-SO 202 0 min 0 W/m 13,1 C 15,3 C 7,2 km/h (2 Bft)
04/10/2012 09:20 15,3 C 87 % 1014,2 hPa 0,0 mm 16,6 km/h (3 Bft) S-SO 202 0 min 0 W/m 13,1 C 15,3 C 17,3 km/h (3 Bft)
04/10/2012 09:30 15,4 C 86 % 1014,4 hPa 0,0 mm 11,5 km/h (2 Bft) O-SO 247 0 min 0 W/m 13,1 C 15,4 C 15,1 km/h (3 Bft)
04/10/2012 09:40 15,4 C 86 % 1014,6 hPa 0,0 mm 7,9 km/h (2 Bft) S-SO 202 0 min 0 W/m 13,1 C 15,4 C 7,9 km/h (2 Bft)
04/10/2012 09:50 15,4 C 86 % 1014,7 hPa 0,0 mm 8,6 km/h (2 Bft) O-SO 247 0 min 0 W/m 13,1 C 15,4 C 12,2 km/h (2 Bft)
04/10/2012 10:00 15,4 C 86 % 1014,7 hPa 0,0 mm 11,9 km/h (2 Bft) SO 225 0 min 0 W/m 13,1 C 15,4 C 22,3 km/h (4 Bft)
04/10/2012 10:10 15,4 C 87 % 1014,9 hPa 0,0 mm 10,4 km/h (2 Bft) SO 225 0 min 0 W/m 13,2 C 15,4 C 21,6 km/h (4 Bft)
04/10/2012 10:20 15,4 C 87 % 1014,9 hPa 0,0 mm 11,9 km/h (2 Bft) SO 225 0 min 0 W/m 13,2 C 15,4 C 18,0 km/h (3 Bft)
04/10/2012 10:30 15,3 C 88 % 1014,9 hPa 0,0 mm 12,6 km/h (3 Bft) O 270 0 min 0 W/m 13,3 C 15,3 C 19,1 km/h (3 Bft)
04/10/2012 10:40 15,2 C 89 % 1015,1 hPa 0,0 mm 7,9 km/h (2 Bft) S-SO 202 0 min 0 W/m 13,4 C 15,2 C 13,3 km/h (3 Bft)
04/10/2012 10:50 15,1 C 90 % 1015,4 hPa 0,1 mm 6,5 km/h (2 Bft) SO 225 0 min 0 W/m 13,5 C 15,1 C 9,4 km/h (2 Bft)
04/10/2012 11:00 14,9 C 90 % 1015,7 hPa 0,1 mm 10,8 km/h (2 Bft) SO 225 0 min 0 W/m 13,3 C 14,9 C 16,6 km/h (3 Bft)
04/10/2012 11:10 14,9 C 91 % 1015,9 hPa 0,2 mm 4,3 km/h (1 Bft) S-SO 202 0 min 0 W/m 13,4 C 14,9 C 10,4 km/h (2 Bft)
04/10/2012 11:20 14,8 C 91 % 1015,9 hPa 0,0 mm 4,3 km/h (1 Bft) O-NO 292 0 min 0 W/m 13,3 C 14,8 C 7,6 km/h (2 Bft)
04/10/2012 11:30 14,8 C 91 % 1016,2 hPa 0,0 mm 1,4 km/h (1 Bft) O-SO 247 0 min 0 W/m 13,3 C 14,8 C 1,4 km/h (1 Bft)
04/10/2012 11:40 14,8 C 91 % 1016,2 hPa 0,0 mm 4,0 km/h (1 Bft) S-SO 202 0 min 0 W/m 13,3 C 14,8 C 4,7 km/h (1 Bft)
04/10/2012 11:50 14,9 C 91 % 1016,2 hPa 0,0 mm 7,6 km/h (2 Bft) SO 225 0 min 0 W/m 13,4 C 14,9 C 13,7 km/h (3 Bft)
04/10/2012 12:00 15,1 C 91 % 1016,3 hPa 0,0 mm 7,2 km/h (2 Bft) SO 225 0 min 0 W/m 13,6 C 15,1 C 11,9 km/h (2 Bft)
04/10/2012 12:10 15,1 C 91 % 1016,3 hPa 0,0 mm 3,6 km/h (1 Bft) O-SO 247 0 min 0 W/m 13,6 C 15,1 C 4,7 km/h (1 Bft)
04/10/2012 12:20 15,4 C 91 % 1016,4 hPa 0,0 mm 3,2 km/h (1 Bft) SO 225 0 min 0 W/m 13,9 C 15,4 C 4,3 km/h (1 Bft)
04/10/2012 12:30 15,7 C 89 % 1016,4 hPa 0,0 mm 2,9 km/h (1 Bft) S-SO 202 0 min 0 W/m 13,9 C 15,7 C 4,3 km/h (1 Bft)
04/10/2012 12:40 15,8 C 88 % 1016,4 hPa 0,0 mm 1,8 km/h (1 Bft) SO 225 0 min 0 W/m 13,8 C 15,8 C 4,3 km/h (1 Bft)
04/10/2012 12:50 15,9 C 88 % 1016,3 hPa 0,0 mm 6,1 km/h (2 Bft) SO 225 0 min 0 W/m 13,9 C 15,9 C 8,6 km/h (2 Bft)
04/10/2012 13:00 16,0 C 88 % 1016,3 hPa 0,0 mm 3,2 km/h (1 Bft) SO 225 0 min 0 W/m 14,0 C 16,0 C 3,2 km/h (1 Bft)
04/10/2012 13:10 16,1 C 87 % 1016,3 hPa 0,0 mm 3,2 km/h (1 Bft) SO 225 0 min 0 W/m 13,9 C 16,1 C 4,0 km/h (1 Bft)
04/10/2012 13:20 16,6 C 87 % 1016,4 hPa 0,0 mm 5,0 km/h (1 Bft) SO 225 0 min 0 W/m 14,4 C 16,6 C 5,0 km/h (1 Bft)
04/10/2012 13:30 17,0 C 86 % 1016,5 hPa 0,0 mm 4,3 km/h (1 Bft) O-SO 247 0 min 0 W/m 14,6 C 17,0 C 8,6 km/h (2 Bft)
04/10/2012 13:40 17,1 C 85 % 1016,5 hPa 0,0 mm 5,0 km/h (1 Bft) S-SO 202 0 min 0 W/m 14,6 C 17,1 C 7,2 km/h (2 Bft)
04/10/2012 13:50 17,1 C 84 % 1016,6 hPa 0,0 mm 9,4 km/h (2 Bft) S-SO 202 0 min 0 W/m 14,4 C 17,1 C 12,2 km/h (2 Bft)
04/10/2012 14:00 16,9 C 84 % 1016,5 hPa 0,0 mm 10,8 km/h (2 Bft) S-SO 202 0 min 0 W/m 14,2 C 16,9 C 10,8 km/h (2 Bft)
04/10/2012 14:10 16,9 C 84 % 1016,6 hPa 0,0 mm 5,4 km/h (2 Bft) S-SO 202 0 min 0 W/m 14,2 C 16,9 C 7,2 km/h (2 Bft)
04/10/2012 14:20 17,2 C 84 % 1016,6 hPa 0,0 mm 1,1 km/h (1 Bft) O-SO 247 0 min 0 W/m 14,5 C 17,2 C 3,6 km/h (1 Bft)
04/10/2012 14:30 17,4 C 82 % 1016,6 hPa 0,0 mm 5,0 km/h (1 Bft) O-SO 247 0 min 0 W/m 14,3 C 17,4 C 6,8 km/h (2 Bft)
04/10/2012 14:40 17,3 C 82 % 1016,6 hPa 0,0 mm 2,5 km/h (1 Bft) O-NO 292 0 min 0 W/m 14,2 C 17,3 C 9,7 km/h (2 Bft)
04/10/2012 14:50 17,2 C 82 % 1016,6 hPa 0,0 mm 4,3 km/h (1 Bft) S-SO 202 0 min 0 W/m 14,1 C 17,2 C 7,2 km/h (2 Bft)
04/10/2012 15:00 17,4 C 82 % 1016,5 hPa 0,0 mm 7,9 km/h (2 Bft) S-SO 202 0 min 0 W/m 14,3 C 17,4 C 11,2 km/h (2 Bft)
04/10/2012 15:10 17,8 C 79 % 1016,5 hPa 0,0 mm 5,4 km/h (2 Bft) S-SO 202 0 min 0 W/m 14,1 C 17,8 C 11,9 km/h (2 Bft)
04/10/2012 15:20 17,8 C 79 % 1016,5 hPa 0,0 mm 9,0 km/h (2 Bft) SO 225 0 min 0 W/m 14,1 C 17,8 C 14,8 km/h (3 Bft)
04/10/2012 15:30 17,8 C 79 % 1016,5 hPa 0,0 mm 5,0 km/h (1 Bft) SO 225 0 min 0 W/m 14,1 C 17,8 C 10,1 km/h (2 Bft)
04/10/2012 15:40 17,9 C 79 % 1016,5 hPa 0,0 mm 4,7 km/h (1 Bft) SO 225 0 min 0 W/m 14,2 C 17,9 C 11,5 km/h (2 Bft)
04/10/2012 15:50 17,9 C 77 % 1016,5 hPa 0,0 mm 7,6 km/h (2 Bft) O-SO 247 0 min 0 W/m 13,8 C 17,9 C 11,2 km/h (2 Bft)
04/10/2012 16:00 18,1 C 78 % 1016,4 hPa 0,0 mm 3,6 km/h (1 Bft) O-SO 247 0 min 0 W/m 14,2 C 18,1 C 6,1 km/h (2 Bft)
04/10/2012 16:10 18,1 C 77 % 1016,4 hPa 0,0 mm 6,5 km/h (2 Bft) S-SO 202 0 min 0 W/m 14,0 C 18,1 C 8,3 km/h (2 Bft)
04/10/2012 16:20 18,2 C 78 % 1016,5 hPa 0,0 mm 4,0 km/h (1 Bft) O 270 0 min 0 W/m 14,3 C 18,2 C 8,6 km/h (2 Bft)
04/10/2012 16:30 18,0 C 79 % 1016,4 hPa 0,0 mm 7,9 km/h (2 Bft) S-SO 202 0 min 0 W/m 14,3 C 18,0 C 10,1 km/h (2 Bft)
04/10/2012 16:40 17,9 C 80 % 1016,5 hPa 0,0 mm 3,2 km/h (1 Bft) S-SO 202 0 min 0 W/m 14,4 C 17,9 C 5,8 km/h (2 Bft)
04/10/2012 16:50 17,8 C 80 % 1016,6 hPa 0,0 mm 7,9 km/h (2 Bft) SO 225 0 min 0 W/m 14,3 C 17,8 C 8,6 km/h (2 Bft)
04/10/2012 17:00 17,4 C 82 % 1016,7 hPa 0,0 mm 5,0 km/h (1 Bft) S 180 0 min 0 W/m 14,3 C 17,4 C 10,8 km/h (2 Bft)
04/10/2012 17:10 16,9 C 84 % 1016,8 hPa 0,4 mm 3,6 km/h (1 Bft) O-SO 247 0 min 0 W/m 14,2 C 16,9 C 6,1 km/h (2 Bft)
04/10/2012 17:20 16,4 C 86 % 1016,7 hPa 0,0 mm 5,4 km/h (2 Bft) SO 225 0 min 0 W/m 14,1 C 16,4 C 5,4 km/h (2 Bft)
04/10/2012 17:30 16,3 C 87 % 1016,7 hPa 0,0 mm 2,2 km/h (1 Bft) SO 225 0 min 0 W/m 14,1 C 16,3 C 4,3 km/h (1 Bft)
04/10/2012 17:40 16,3 C 87 % 1016,7 hPa 0,0 mm 1,8 km/h (1 Bft) S-SO 202 0 min 0 W/m 14,1 C 16,3 C 3,6 km/h (1 Bft)
04/10/2012 17:50 16,4 C 87 % 1016,7 hPa 0,0 mm 2,5 km/h (1 Bft) O-SO 247 0 min 0 W/m 14,2 C 16,4 C 4,3 km/h (1 Bft)
04/10/2012 18:00 16,4 C 87 % 1016,7 hPa 0,0 mm 2,2 km/h (1 Bft) O-SO 247 0 min 0 W/m 14,2 C 16,4 C 6,1 km/h (2 Bft)
04/10/2012 18:10 16,4 C 87 % 1016,8 hPa 0,0 mm 2,9 km/h (1 Bft) SO 225 0 min 0 W/m 14,2 C 16,4 C 2,9 km/h (1 Bft)
04/10/2012 18:20 16,4 C 87 % 1016,7 hPa 0,0 mm 1,8 km/h (1 Bft) SO 225 0 min 0 W/m 14,2 C 16,4 C 4,0 km/h (1 Bft)
04/10/2012 18:30 16,4 C 87 % 1016,7 hPa 0,0 mm 3,2 km/h (1 Bft) O-SO 247 0 min 0 W/m 14,2 C 16,4 C 6,8 km/h (2 Bft)
04/10/2012 18:40 16,3 C 86 % 1016,7 hPa 0,0 mm 2,9 km/h (1 Bft) SO 225 0 min 0 W/m 14,0 C 16,3 C 4,0 km/h (1 Bft)
04/10/2012 18:50 16,1 C 87 % 1016,7 hPa 0,0 mm 2,5 km/h (1 Bft) S-SO 202 0 min 0 W/m 13,9 C 16,1 C 4,0 km/h (1 Bft)
04/10/2012 19:00 15,9 C 87 % 1016,7 hPa 0,0 mm 4,0 km/h (1 Bft) S-SO 202 0 min 0 W/m 13,7 C 15,9 C 4,0 km/h (1 Bft)
04/10/2012 19:10 15,8 C 88 % 1016,8 hPa 0,0 mm 0,4 km/h (0 Bft) SO 225 0 min 0 W/m 13,8 C 15,8 C 3,2 km/h (1 Bft)
04/10/2012 19:20 15,6 C 89 % 1016,6 hPa 0,0 mm 0,0 km/h (0 Bft) S-SO 202 0 min 0 W/m 13,8 C 15,6 C 0,0 km/h (0 Bft)
04/10/2012 19:30 15,5 C 89 % 1016,7 hPa 0,0 mm 0,0 km/h (0 Bft) S-SO 202 0 min 0 W/m 13,7 C 15,5 C 0,0 km/h (0 Bft)
04/10/2012 19:40 15,4 C 89 % 1016,7 hPa 0,0 mm 0,0 km/h (0 Bft) S-SO 202 0 min 0 W/m 13,6 C 15,4 C 0,0 km/h (0 Bft)
04/10/2012 19:50 15,4 C 89 % 1016,6 hPa 0,0 mm 0,0 km/h (0 Bft) S-SO 202 0 min 0 W/m 13,6 C 15,4 C 0,0 km/h (0 Bft)
04/10/2012 20:00 15,2 C 89 % 1016,7 hPa 0,0 mm 0,0 km/h (0 Bft) S-SO 202 0 min 0 W/m 13,4 C 15,2 C 0,0 km/h (0 Bft)
04/10/2012 20:10 14,9 C 89 % 1016,9 hPa 0,0 mm 0,0 km/h (0 Bft) S-SO 202 0 min 0 W/m 13,1 C 14,9 C 0,0 km/h (0 Bft)
04/10/2012 20:20 14,8 C 89 % 1016,9 hPa 0,0 mm 0,0 km/h (0 Bft) S-SO 202 0 min 0 W/m 13,0 C 14,8 C 0,0 km/h (0 Bft)
04/10/2012 20:30 14,5 C 89 % 1016,9 hPa 0,0 mm 0,0 km/h (0 Bft) S-SO 202 0 min 0 W/m 12,7 C 14,5 C 0,0 km/h (0 Bft)
04/10/2012 20:40 14,3 C 89 % 1016,9 hPa 0,0 mm 0,0 km/h (0 Bft) S-SO 202 0 min 0 W/m 12,5 C 14,3 C 3,2 km/h (1 Bft)
04/10/2012 20:50 14,1 C 90 % 1016,9 hPa 0,0 mm 0,0 km/h (0 Bft) S-SO 202 0 min 0 W/m 12,5 C 14,1 C 2,9 km/h (1 Bft)
04/10/2012 21:00 14,0 C 90 % 1016,9 hPa 0,0 mm 0,0 km/h (0 Bft) S-SO 202 0 min 0 W/m 12,4 C 14,0 C 0,0 km/h (0 Bft)
04/10/2012 21:10 13,9 C 91 % 1016,9 hPa 0,0 mm 0,0 km/h (0 Bft) S-SO 202 0 min 0 W/m 12,5 C 13,9 C 0,0 km/h (0 Bft)
04/10/2012 21:20 13,8 C 91 % 1016,9 hPa 0,0 mm 0,0 km/h (0 Bft) S 180 0 min 0 W/m 12,4 C 13,8 C 0,0 km/h (0 Bft)
04/10/2012 21:30 13,7 C 91 % 1017,0 hPa 0,0 mm 0,0 km/h (0 Bft) S 180 0 min 0 W/m 12,3 C 13,7 C 0,0 km/h (0 Bft)
04/10/2012 21:40 13,6 C 91 % 1017,1 hPa 0,0 mm 0,0 km/h (0 Bft) N 360 0 min 0 W/m 12,2 C 13,6 C 0,0 km/h (0 Bft)
04/10/2012 21:50 13,6 C 91 % 1017,0 hPa 0,0 mm 0,0 km/h (0 Bft) S 180 0 min 0 W/m 12,2 C 13,6 C 0,0 km/h (0 Bft)
04/10/2012 22:00 13,6 C 91 % 1017,2 hPa 0,0 mm 0,0 km/h (0 Bft) S 180 0 min 0 W/m 12,2 C 13,6 C 0,0 km/h (0 Bft)
04/10/2012 22:10 13,4 C 91 % 1017,1 hPa 0,0 mm 0,0 km/h (0 Bft) O-SO 247 0 min 0 W/m 12,0 C 13,4 C 0,0 km/h (0 Bft)
04/10/2012 22:20 13,3 C 91 % 1017,1 hPa 0,0 mm 0,0 km/h (0 Bft) O-SO 247 0 min 0 W/m 11,9 C 13,3 C 0,0 km/h (0 Bft)
04/10/2012 22:30 13,1 C 91 % 1017,1 hPa 0,0 mm 0,0 km/h (0 Bft) O-SO 247 0 min 0 W/m 11,7 C 13,1 C 0,0 km/h (0 Bft)
04/10/2012 22:40 12,9 C 91 % 1017,1 hPa 0,0 mm 0,4 km/h (0 Bft) SO 225 0 min 0 W/m 11,5 C 12,9 C 0,4 km/h (0 Bft)
04/10/2012 22:50 12,8 C 91 % 1017,1 hPa 0,0 mm 0,0 km/h (0 Bft) S-SO 202 0 min 0 W/m 11,4 C 12,8 C 0,0 km/h (0 Bft)
04/10/2012 23:00 12,6 C 91 % 1017,1 hPa 0,0 mm 0,0 km/h (0 Bft) S-SO 202 0 min 0 W/m 11,2 C 12,6 C 0,0 km/h (0 Bft)
04/10/2012 23:10 12,5 C 91 % 1017,1 hPa 0,0 mm 0,0 km/h (0 Bft) S-SO 202 0 min 0 W/m 11,1 C 12,5 C 0,0 km/h (0 Bft)
_ Min-Heure 23:10 16:10 07:10 - 23:10 - - - - 23:10 23:10 23:10
Minimum _ 12,5 C 77 % 1013,1 hPa - 0,0 km/h (0 Bft) - - - - 11,1 C 12,5 C 0,0 km/h (0 Bft)
_ Max-Heure 16:20 23:10 22:00 17:10 09:20 - - 23:10 23:10 13:30 16:20 10:00
Maximum _ 18,2 C 91 % 1017,2 hPa 0,4 mm 16,6 km/h
S-SO (3 Bft)
- - 0 min 0 W/m 14,6 C 18,2 C 22,3 km/h
SO (4 Bft)
Moyenne _ 15,1 C 87 % 1015,5 hPa #0,8 mm 5,2 km/h (1 Bft) S-SO - #0 min. 0 W/m 13,0 C 15,1 C 7,9 km/h (2 Bft)
Saint Bonnet de Bellac- Haute Vienne - France